Time;durP1;ratioP1;P1;durP2;ratioP2;P2;SDS_P1;SDS_P2;PMS_P1;PMS_P2;Temp;Humidity;BMP_temperature;BMP_pressure;BME280_temperature;BME280_humidity;BME280_pressure;Samples;Min_cycle;Max_cycle;Signal;HPM_P1;HPM_P2
2023/05/20 00:00:07;;;;;;;;;;;11.50;99.90;;;;;;5132798;27;20364;-64
2023/05/20 00:02:32;;;;;;;;;;;11.50;99.90;;;;;;5133301;27;19963;-66
2023/05/20 00:04:58;;;;;;;;;;;11.50;99.90;;;;;;5132780;27;19966;-64
2023/05/20 00:07:23;;;;;;;;;;;11.40;99.90;;;;;;5133129;27;19930;-66
2023/05/20 00:09:49;;;;;;;;;;;11.40;99.90;;;;;;5132755;28;20303;-64
2023/05/20 00:12:15;;;;;;;;;;;11.30;99.90;;;;;;5131859;28;19927;-64
2023/05/20 00:14:40;;;;;;;;;;;11.40;99.90;;;;;;5133089;28;19958;-64
2023/05/20 00:17:06;;;;;;;;;;;11.30;99.90;;;;;;5132703;27;19924;-64
2023/05/20 00:19:31;;;;;;;;;;;11.30;99.90;;;;;;5133027;27;19946;-65
2023/05/20 00:21:57;;;;;;;;;;;11.30;99.90;;;;;;5132852;28;20034;-70
2023/05/20 00:24:23;;;;;;;;;;;11.30;99.90;;;;;;5134076;27;19969;-64
2023/05/20 00:26:49;;;;;;;;;;;11.30;99.90;;;;;;5137274;27;20376;-64
2023/05/20 00:29:14;;;;;;;;;;;11.20;99.90;;;;;;5135619;27;19927;-64
2023/05/20 00:31:40;;;;;;;;;;;11.20;99.90;;;;;;5136318;27;19923;-63
2023/05/20 00:34:06;;;;;;;;;;;11.20;99.90;;;;;;5135497;27;20343;-64
2023/05/20 00:36:32;;;;;;;;;;;11.20;99.90;;;;;;5136960;27;19923;-64
2023/05/20 00:38:57;;;;;;;;;;;11.20;99.90;;;;;;5137002;27;19923;-63
2023/05/20 00:41:23;;;;;;;;;;;11.10;99.90;;;;;;5136585;27;19924;-64
2023/05/20 00:43:52;;;;;;;;;;;11.10;99.90;;;;;;5135922;27;19927;-65
2023/05/20 00:46:17;;;;;;;;;;;11.10;99.90;;;;;;5135425;27;20006;-65
2023/05/20 00:48:43;;;;;;;;;;;11.10;99.90;;;;;;5135235;27;20431;-64
2023/05/20 00:51:09;;;;;;;;;;;11.00;99.90;;;;;;5135483;27;19930;-64
2023/05/20 00:53:35;;;;;;;;;;;11.00;99.90;;;;;;5136785;27;19937;-64
2023/05/20 00:56:01;;;;;;;;;;;11.00;99.90;;;;;;5135879;27;19923;-70
2023/05/20 00:58:27;;;;;;;;;;;11.00;99.90;;;;;;5136314;27;19946;-64
2023/05/20 01:00:52;;;;;;;;;;;11.00;99.90;;;;;;5135185;27;20368;-64
2023/05/20 01:03:18;;;;;;;;;;;11.00;99.90;;;;;;5134694;27;19974;-64
2023/05/20 01:05:44;;;;;;;;;;;11.00;99.90;;;;;;5135432;27;19927;-64
2023/05/20 01:08:09;;;;;;;;;;;10.90;99.90;;;;;;5134773;27;19923;-64
2023/05/20 01:10:37;;;;;;;;;;;11.00;99.90;;;;;;5136431;27;19923;-64
2023/05/20 01:13:05;;;;;;;;;;;10.90;99.90;;;;;;5135908;27;20408;-65
2023/05/20 01:15:30;;;;;;;;;;;10.90;99.90;;;;;;5135262;27;19924;-64
2023/05/20 01:18:00;;;;;;;;;;;10.90;99.90;;;;;;5136260;27;19923;-64
2023/05/20 01:20:26;;;;;;;;;;;10.90;99.90;;;;;;5135871;27;19926;-65
2023/05/20 01:22:53;;;;;;;;;;;10.90;99.90;;;;;;5136242;27;19966;-64
2023/05/20 01:25:18;;;;;;;;;;;10.80;99.90;;;;;;5135196;27;20241;-64
2023/05/20 01:27:44;;;;;;;;;;;10.80;99.90;;;;;;5136015;27;19927;-64
2023/05/20 01:30:10;;;;;;;;;;;10.80;99.90;;;;;;5135111;27;19930;-65
2023/05/20 01:32:37;;;;;;;;;;;10.80;99.90;;;;;;5135989;27;19949;-64
2023/05/20 01:35:03;;;;;;;;;;;10.70;99.90;;;;;;5135824;27;19924;-64
2023/05/20 01:37:30;;;;;;;;;;;10.70;99.90;;;;;;5135277;27;20625;-65
2023/05/20 01:39:56;;;;;;;;;;;10.70;99.90;;;;;;5135544;27;20387;-65
2023/05/20 01:42:21;;;;;;;;;;;10.70;99.90;;;;;;5135381;27;19923;-64
2023/05/20 01:44:47;;;;;;;;;;;10.70;99.90;;;;;;5135889;27;19923;-65
2023/05/20 01:47:13;;;;;;;;;;;10.70;99.90;;;;;;5135408;27;19965;-64
2023/05/20 01:49:38;;;;;;;;;;;10.70;99.90;;;;;;5135038;27;19931;-65
2023/05/20 01:52:04;;;;;;;;;;;10.60;99.90;;;;;;5134378;27;19927;-64
2023/05/20 01:54:30;;;;;;;;;;;10.60;99.90;;;;;;5134988;27;19919;-64
2023/05/20 01:56:55;;;;;;;;;;;10.60;99.90;;;;;;5116824;27;19923;-64
2023/05/20 01:59:21;;;;;;;;;;;10.50;99.90;;;;;;5135040;27;20022;-66
2023/05/20 02:01:47;;;;;;;;;;;10.50;99.90;;;;;;5135356;27;20014;-64
2023/05/20 02:04:12;;;;;;;;;;;10.50;99.90;;;;;;5134662;27;19956;-70
2023/05/20 02:06:38;;;;;;;;;;;10.50;99.90;;;;;;5135250;27;19923;-64
2023/05/20 02:09:04;;;;;;;;;;;10.50;99.90;;;;;;5135184;27;20014;-64
2023/05/20 02:11:29;;;;;;;;;;;10.50;99.90;;;;;;5134792;27;19927;-64
2023/05/20 02:13:55;;;;;;;;;;;10.40;99.90;;;;;;5135082;27;19930;-64
2023/05/20 02:16:20;;;;;;;;;;;10.50;99.90;;;;;;5134704;27;19946;-64
2023/05/20 02:18:46;;;;;;;;;;;10.40;99.90;;;;;;5134229;27;19931;-64
2023/05/20 02:21:11;;;;;;;;;;;10.40;99.90;;;;;;5116555;27;19930;-65
2023/05/20 02:23:37;;;;;;;;;;;10.40;99.90;;;;;;5134299;27;19927;-64
2023/05/20 02:26:03;;;;;;;;;;;10.40;99.90;;;;;;5134781;27;19923;-64
2023/05/20 02:28:28;;;;;;;;;;;10.40;99.90;;;;;;5133906;27;19924;-64
2023/05/20 02:30:54;;;;;;;;;;;10.40;99.90;;;;;;5134934;27;20010;-63
2023/05/20 02:33:19;;;;;;;;;;;10.30;99.90;;;;;;5134573;27;19930;-64
2023/05/20 02:35:45;;;;;;;;;;;10.30;99.90;;;;;;5134779;27;19985;-63
2023/05/20 02:38:11;;;;;;;;;;;10.30;99.90;;;;;;5134590;27;19923;-64
2023/05/20 02:40:36;;;;;;;;;;;10.30;99.90;;;;;;5134169;27;20030;-64
2023/05/20 02:43:02;;;;;;;;;;;10.30;99.90;;;;;;5133626;27;19991;-64
2023/05/20 02:45:28;;;;;;;;;;;10.30;99.90;;;;;;5134005;27;19931;-63
2023/05/20 02:47:54;;;;;;;;;;;10.30;99.90;;;;;;5133877;27;19930;-64
2023/05/20 02:50:19;;;;;;;;;;;10.30;99.90;;;;;;5133155;27;19934;-66
2023/05/20 02:52:46;;;;;;;;;;;10.30;99.90;;;;;;5134143;27;20396;-64
2023/05/20 02:55:11;;;;;;;;;;;10.30;99.90;;;;;;5134423;27;19976;-63
2023/05/20 02:57:37;;;;;;;;;;;10.30;99.90;;;;;;5133865;27;19923;-64
2023/05/20 03:00:04;;;;;;;;;;;10.30;99.90;;;;;;5133343;27;20014;-64
2023/05/20 03:02:30;;;;;;;;;;;10.30;99.90;;;;;;5133737;27;19923;-63
2023/05/20 03:04:56;;;;;;;;;;;10.30;99.90;;;;;;5132952;27;19923;-64
2023/05/20 03:07:21;;;;;;;;;;;10.30;99.90;;;;;;5132517;27;19923;-64
2023/05/20 03:09:47;;;;;;;;;;;10.30;99.90;;;;;;5133751;27;20385;-64
2023/05/20 03:12:13;;;;;;;;;;;10.30;99.90;;;;;;5133990;27;19923;-64
2023/05/20 03:14:38;;;;;;;;;;;10.30;99.90;;;;;;5133407;27;19946;-64
2023/05/20 03:17:04;;;;;;;;;;;10.20;99.90;;;;;;5132816;27;19928;-63
2023/05/20 03:19:30;;;;;;;;;;;10.20;99.90;;;;;;5131527;27;20337;-64
2023/05/20 03:21:56;;;;;;;;;;;10.20;99.90;;;;;;5133551;27;19930;-65
2023/05/20 03:24:22;;;;;;;;;;;10.20;99.90;;;;;;5132630;27;19931;-69
2023/05/20 03:26:48;;;;;;;;;;;10.20;99.90;;;;;;5132850;27;19923;-63
2023/05/20 03:29:13;;;;;;;;;;;10.10;99.90;;;;;;5133192;27;19928;-64
2023/05/20 03:31:39;;;;;;;;;;;10.10;99.90;;;;;;5132978;27;19923;-64
2023/05/20 03:34:05;;;;;;;;;;;10.10;99.90;;;;;;5133003;27;19923;-63
2023/05/20 03:36:31;;;;;;;;;;;10.10;99.90;;;;;;5131492;27;19923;-63
2023/05/20 03:38:56;;;;;;;;;;;10.10;99.90;;;;;;5133155;27;19923;-63
2023/05/20 03:41:22;;;;;;;;;;;10.10;99.90;;;;;;5133394;27;20333;-63
2023/05/20 03:43:47;;;;;;;;;;;10.10;99.90;;;;;;5131122;27;20291;-63
2023/05/20 03:46:13;;;;;;;;;;;10.10;99.90;;;;;;5132156;27;19927;-64
2023/05/20 03:48:39;;;;;;;;;;;10.10;99.90;;;;;;5165983;27;20015;-63
2023/05/20 03:51:05;;;;;;;;;;;10.10;99.90;;;;;;5131907;27;19930;-63
2023/05/20 03:53:31;;;;;;;;;;;10.10;99.90;;;;;;5131702;27;19923;-63
2023/05/20 03:55:56;;;;;;;;;;;10.10;99.90;;;;;;5133160;27;20320;-64
2023/05/20 03:58:22;;;;;;;;;;;10.10;99.90;;;;;;5132204;27;19923;-65
2023/05/20 04:00:48;;;;;;;;;;;10.20;99.90;;;;;;5132507;27;19975;-64
2023/05/20 04:03:14;;;;;;;;;;;10.20;99.90;;;;;;5133134;27;19946;-63
2023/05/20 04:05:40;;;;;;;;;;;10.30;99.90;;;;;;5132647;27;19923;-63
2023/05/20 04:08:06;;;;;;;;;;;9.90;99.90;;;;;;5132908;27;19923;-65
2023/05/20 04:10:32;;;;;;;;;;;10.40;99.90;;;;;;5132669;27;19976;-64
2023/05/20 04:12:57;;;;;;;;;;;10.40;99.90;;;;;;5132234;27;19977;-64
2023/05/20 04:15:24;;;;;;;;;;;10.40;99.90;;;;;;5132849;27;20353;-64
2023/05/20 04:17:51;;;;;;;;;;;10.50;99.90;;;;;;5131291;28;19919;-64
2023/05/20 04:20:17;;;;;;;;;;;10.50;99.90;;;;;;5132991;27;20019;-66
2023/05/20 04:22:47;;;;;;;;;;;10.50;99.90;;;;;;5132548;27;19924;-64
2023/05/20 04:25:12;;;;;;;;;;;10.50;99.90;;;;;;5132757;27;20001;-64
2023/05/20 04:27:38;;;;;;;;;;;10.60;99.90;;;;;;5132016;27;20133;-64
2023/05/20 04:30:05;;;;;;;;;;;10.70;99.90;;;;;;5130911;28;19973;-64
2023/05/20 04:32:33;;;;;;;;;;;10.70;99.90;;;;;;5132538;27;19950;-70
2023/05/20 04:35:00;;;;;;;;;;;10.70;99.90;;;;;;5131794;28;20307;-64
2023/05/20 04:37:26;;;;;;;;;;;10.80;99.90;;;;;;5132718;27;20400;-64
2023/05/20 04:39:52;;;;;;;;;;;10.80;99.90;;;;;;5132491;27;19920;-64
2023/05/20 04:42:20;;;;;;;;;;;10.90;99.90;;;;;;5132771;27;20267;-64
2023/05/20 04:44:46;;;;;;;;;;;10.90;99.90;;;;;;5131356;28;19930;-64
2023/05/20 04:47:12;;;;;;;;;;;10.90;99.90;;;;;;5132661;27;19924;-66
2023/05/20 04:49:38;;;;;;;;;;;11.00;99.90;;;;;;5132285;27;20202;-64
2023/05/20 04:52:04;;;;;;;;;;;11.00;99.90;;;;;;5132770;28;19935;-64
2023/05/20 04:54:31;;;;;;;;;;;11.00;99.90;;;;;;5132826;27;19967;-64
2023/05/20 04:56:57;;;;;;;;;;;11.00;99.90;;;;;;5132524;27;19927;-64
2023/05/20 04:59:23;;;;;;;;;;;11.10;99.90;;;;;;5132634;27;19976;-64
2023/05/20 05:01:48;;;;;;;;;;;11.10;99.90;;;;;;5114184;28;19972;-64
2023/05/20 05:04:14;;;;;;;;;;;11.20;99.90;;;;;;5131431;28;19953;-63
2023/05/20 05:06:40;;;;;;;;;;;11.20;99.90;;;;;;5131320;28;19923;-64
2023/05/20 05:09:05;;;;;;;;;;;11.20;99.90;;;;;;5132511;27;19923;-64
2023/05/20 05:11:31;;;;;;;;;;;11.20;99.90;;;;;;5135903;27;19930;-64
2023/05/20 05:13:56;;;;;;;;;;;11.30;99.90;;;;;;5134606;27;19980;-64
2023/05/20 05:16:22;;;;;;;;;;;11.30;99.90;;;;;;5135690;27;19930;-64
2023/05/20 05:18:47;;;;;;;;;;;11.30;99.90;;;;;;5135935;27;19923;-64
2023/05/20 05:21:13;;;;;;;;;;;11.40;99.90;;;;;;5136347;27;19930;-64
2023/05/20 05:23:38;;;;;;;;;;;11.50;99.90;;;;;;5135745;27;20018;-67
2023/05/20 05:26:04;;;;;;;;;;;;;;;;;;5136022;27;19928;-63
2023/05/20 05:28:30;;;;;;;;;;;12.00;99.90;;;;;;5135599;27;19930;-62
2023/05/20 05:30:56;;;;;;;;;;;14.00;99.90;;;;;;5135615;27;19975;-62
2023/05/20 05:33:21;;;;;;;;;;;14.90;99.90;;;;;;5135957;27;19974;-62
2023/05/20 05:35:47;;;;;;;;;;;16.00;99.90;;;;;;5135456;27;19990;-62
2023/05/20 05:38:12;;;;;;;;;;;16.90;99.90;;;;;;5135804;27;19924;-64
2023/05/20 05:40:38;;;;;;;;;;;17.60;99.90;;;;;;5134757;27;19923;-67
2023/05/20 05:43:04;;;;;;;;;;;18.20;99.90;;;;;;5135612;27;19927;-63
2023/05/20 05:45:29;;;;;;;;;;;18.80;99.90;;;;;;5135784;27;19924;-62
2023/05/20 05:47:55;;;;;;;;;;;19.30;99.90;;;;;;5135317;27;19923;-62
2023/05/20 05:50:20;;;;;;;;;;;19.90;99.90;;;;;;5134309;27;20369;-62
2023/05/20 05:52:46;;;;;;;;;;;20.30;99.10;;;;;;5135175;27;20010;-64
2023/05/20 05:55:11;;;;;;;;;;;20.50;99.30;;;;;;5134492;27;20011;-63
2023/05/20 05:57:37;;;;;;;;;;;20.60;99.90;;;;;;5135498;27;19974;-63
2023/05/20 06:00:03;;;;;;;;;;;20.80;98.80;;;;;;5134731;27;19924;-63
2023/05/20 06:02:29;;;;;;;;;;;21.00;97.90;;;;;;5135145;27;19939;-62
2023/05/20 06:04:54;;;;;;;;;;;21.40;96.10;;;;;;5134922;27;19981;-63
2023/05/20 06:07:20;;;;;;;;;;;21.80;97.90;;;;;;5117340;27;19924;-64
2023/05/20 06:09:46;;;;;;;;;;;;;;;;;;5134901;27;19924;-62
2023/05/20 06:12:11;;;;;;;;;;;22.10;96.20;;;;;;5135171;27;19924;-62
2023/05/20 06:14:37;;;;;;;;;;;;;;;;;;5135040;27;19982;-61
2023/05/20 06:17:04;;;;;;;;;;;;;;;;;;5134491;27;19919;-62
2023/05/20 06:19:30;;;;;;;;;;;;;;;;;;5135137;27;19923;-62
2023/05/20 06:21:57;;;;;;;;;;;;;;;;;;5133772;27;20010;-61
2023/05/20 06:24:23;;;;;;;;;;;22.30;94.40;;;;;;5135014;27;20439;-63
2023/05/20 06:26:49;;;;;;;;;;;;;;;;;;5134443;27;19967;-62
2023/05/20 06:29:15;;;;;;;;;;;;;;;;;;5134059;27;20381;-63
2023/05/20 06:31:41;;;;;;;;;;;;;;;;;;5135072;27;20014;-63
2023/05/20 06:34:07;;;;;;;;;;;;;;;;;;5134459;27;20005;-62
2023/05/20 06:36:33;;;;;;;;;;;;;;;;;;5133696;27;19924;-63
2023/05/20 06:38:59;;;;;;;;;;;;;;;;;;5133040;27;19946;-61
2023/05/20 06:41:26;;;;;;;;;;;22.40;94.10;;;;;;5167934;27;19924;-62
2023/05/20 06:43:51;;;;;;;;;;;23.30;92.90;;;;;;5134232;27;19930;-62
2023/05/20 06:46:17;;;;;;;;;;;23.30;91.40;;;;;;5134635;27;19924;-62
2023/05/20 06:48:42;;;;;;;;;;;23.30;91.60;;;;;;5134686;27;19931;-62
2023/05/20 06:51:08;;;;;;;;;;;23.50;93.00;;;;;;5167607;27;20175;-63
2023/05/20 06:53:34;;;;;;;;;;;23.70;91.30;;;;;;5134514;27;19936;-63
2023/05/20 06:56:00;;;;;;;;;;;24.10;90.60;;;;;;5133548;27;19923;-63
2023/05/20 06:58:25;;;;;;;;;;;24.10;90.60;;;;;;5134377;27;19927;-63
2023/05/20 07:00:51;;;;;;;;;;;24.20;91.20;;;;;;5133894;27;19967;-68
2023/05/20 07:03:17;;;;;;;;;;;24.10;91.20;;;;;;5134352;27;19978;-64
2023/05/20 07:05:43;;;;;;;;;;;24.40;91.00;;;;;;5115981;27;19923;-62
2023/05/20 07:08:08;;;;;;;;;;;24.50;88.70;;;;;;5133584;27;19985;-62
2023/05/20 07:10:34;;;;;;;;;;;24.90;90.90;;;;;;5134137;27;19970;-63
2023/05/20 07:13:00;;;;;;;;;;;;;;;;;;5133422;27;19977;-63
2023/05/20 07:15:26;;;;;;;;;;;25.20;89.50;;;;;;5133928;27;19980;-64
2023/05/20 07:17:52;;;;;;;;;;;25.60;87.50;;;;;;5133533;27;19923;-69
2023/05/20 07:20:17;;;;;;;;;;;25.70;87.50;;;;;;5133720;27;20017;-64
2023/05/20 07:22:43;;;;;;;;;;;25.70;88.30;;;;;;5133846;27;20440;-62
2023/05/20 07:25:08;;;;;;;;;;;25.60;88.60;;;;;;5133451;27;20419;-63
2023/05/20 07:27:34;;;;;;;;;;;25.80;88.80;;;;;;5132389;27;19934;-64
2023/05/20 07:30:00;;;;;;;;;;;25.90;86.80;;;;;;5132827;27;19930;-64
2023/05/20 07:32:26;;;;;;;;;;;25.70;85.10;;;;;;5133434;27;19998;-63
2023/05/20 07:34:52;;;;;;;;;;;25.50;87.10;;;;;;5133736;27;20013;-63
2023/05/20 07:37:17;;;;;;;;;;;25.30;86.80;;;;;;5133314;27;19930;-63
2023/05/20 07:39:43;;;;;;;;;;;25.40;87.20;;;;;;5133513;27;20377;-63
2023/05/20 07:42:09;;;;;;;;;;;25.30;86.80;;;;;;5132274;27;19976;-64
2023/05/20 07:44:34;;;;;;;;;;;25.20;86.00;;;;;;5132626;27;19928;-63
2023/05/20 07:47:00;;;;;;;;;;;25.10;86.20;;;;;;5133184;27;19927;-63
2023/05/20 07:49:26;;;;;;;;;;;24.90;86.20;;;;;;5115007;27;19923;-64
2023/05/20 07:51:51;;;;;;;;;;;25.20;86.90;;;;;;5132026;27;19924;-64
2023/05/20 07:54:17;;;;;;;;;;;25.30;86.20;;;;;;5132921;27;20273;-61
2023/05/20 07:56:42;;;;;;;;;;;25.50;85.80;;;;;;5133457;27;20014;-65
2023/05/20 07:59:08;;;;;;;;;;;25.60;86.20;;;;;;5132716;27;19923;-63
2023/05/20 08:01:33;;;;;;;;;;;25.60;85.50;;;;;;5133341;27;19929;-63
2023/05/20 08:03:59;;;;;;;;;;;25.70;86.00;;;;;;5132811;27;19923;-67
2023/05/20 08:06:25;;;;;;;;;;;25.70;85.80;;;;;;5132933;27;19928;-63
2023/05/20 08:08:53;;;;;;;;;;;25.60;86.40;;;;;;5133122;27;20052;-63
2023/05/20 08:11:20;;;;;;;;;;;25.80;86.40;;;;;;5132853;27;19935;-63
2023/05/20 08:13:46;;;;;;;;;;;25.90;84.90;;;;;;5133298;27;19948;-63
2023/05/20 08:16:11;;;;;;;;;;;25.90;84.10;;;;;;5132788;27;20385;-63
2023/05/20 08:18:37;;;;;;;;;;;25.90;85.40;;;;;;5131638;28;20440;-64
2023/05/20 08:21:03;;;;;;;;;;;26.20;83.50;;;;;;5132577;28;19924;-63
2023/05/20 08:23:29;;;;;;;;;;;26.20;82.70;;;;;;5131489;28;19928;-63
2023/05/20 08:25:56;;;;;;;;;;;26.10;83.60;;;;;;5133131;27;20497;-64
2023/05/20 08:28:21;;;;;;;;;;;26.10;84.30;;;;;;5131506;28;20006;-64
2023/05/20 08:30:47;;;;;;;;;;;26.20;84.40;;;;;;5131460;28;20010;-63
2023/05/20 08:33:13;;;;;;;;;;;25.90;84.10;;;;;;5132429;27;19969;-64
2023/05/20 08:35:39;;;;;;;;;;;26.10;83.40;;;;;;5131638;28;19989;-64
2023/05/20 08:38:05;;;;;;;;;;;26.20;82.90;;;;;;5132610;27;19927;-63
2023/05/20 08:40:33;;;;;;;;;;;26.20;84.60;;;;;;5131629;28;19972;-64
2023/05/20 08:43:00;;;;;;;;;;;26.20;84.30;;;;;;5132479;27;19955;-64
2023/05/20 08:45:27;;;;;;;;;;;26.30;83.50;;;;;;5133464;27;19928;-64
2023/05/20 08:47:53;;;;;;;;;;;26.40;83.90;;;;;;5135910;27;19969;-64
2023/05/20 08:50:18;;;;;;;;;;;26.20;83.70;;;;;;5136496;27;20102;-65
2023/05/20 08:52:45;;;;;;;;;;;26.80;83.90;;;;;;5136642;27;19927;-64
2023/05/20 08:55:14;;;;;;;;;;;27.00;83.40;;;;;;5135300;27;19977;-65
2023/05/20 08:57:40;;;;;;;;;;;27.00;81.10;;;;;;5135718;27;19935;-64
2023/05/20 09:00:12;;;;;;;;;;;26.80;83.20;;;;;;5135247;27;19924;-67
2023/05/20 09:02:38;;;;;;;;;;;26.70;82.20;;;;;;5136466;27;19923;-64
2023/05/20 09:05:03;;;;;;;;;;;26.30;82.40;;;;;;5136564;27;19930;-63
2023/05/20 09:07:29;;;;;;;;;;;26.20;83.30;;;;;;5135925;27;19923;-64
2023/05/20 09:09:56;;;;;;;;;;;26.40;83.60;;;;;;5136266;27;19935;-63
2023/05/20 09:12:21;;;;;;;;;;;26.30;82.60;;;;;;5135904;27;20003;-63
2023/05/20 09:14:47;;;;;;;;;;;26.20;82.90;;;;;;5134783;27;20435;-63
2023/05/20 09:17:12;;;;;;;;;;;26.20;83.10;;;;;;5135630;27;19923;-63
2023/05/20 09:19:38;;;;;;;;;;;26.10;82.70;;;;;;5117692;27;19923;-63
2023/05/20 09:22:04;;;;;;;;;;;26.00;83.00;;;;;;5136549;27;19928;-63
2023/05/20 09:24:30;;;;;;;;;;;25.70;83.20;;;;;;5136016;27;20002;-63
2023/05/20 09:26:56;;;;;;;;;;;25.60;83.60;;;;;;5135140;27;19930;-63
2023/05/20 09:29:22;;;;;;;;;;;25.60;84.30;;;;;;5135657;27;19966;-63
2023/05/20 09:31:48;;;;;;;;;;;25.80;83.50;;;;;;5135875;27;19993;-63
2023/05/20 09:34:15;;;;;;;;;;;25.80;82.80;;;;;;5135842;27;19970;-64
2023/05/20 09:36:41;;;;;;;;;;;;;;;;;;5136401;27;19931;-62
2023/05/20 09:39:07;;;;;;;;;;;;;;;;;;5136169;27;19923;-64
2023/05/20 09:41:32;;;;;;;;;;;;;;;;;;5135717;27;19947;-64
2023/05/20 09:43:58;;;;;;;;;;;;;;;;;;5135975;27;20282;-63
2023/05/20 09:46:25;;;;;;;;;;;;;;;;;;5134788;27;19927;-63
2023/05/20 09:48:51;;;;;;;;;;;;;;;;;;5135690;27;20376;-63
2023/05/20 09:51:17;;;;;;;;;;;;;;;;;;5135717;27;20004;-63
2023/05/20 09:53:43;;;;;;;;;;;25.70;83.30;;;;;;5135920;27;20371;-63
2023/05/20 09:56:08;;;;;;;;;;;24.00;85.30;;;;;;5134051;27;20289;-63
2023/05/20 09:58:37;;;;;;;;;;;23.60;84.90;;;;;;5135213;27;19974;-63
2023/05/20 10:01:03;;;;;;;;;;;;;;;;;;5135788;27;20289;-63
2023/05/20 10:03:29;;;;;;;;;;;;;;;;;;5134326;27;19927;-63
2023/05/20 10:05:55;;;;;;;;;;;;;;;;;;5134589;27;20014;-63
2023/05/20 10:08:21;;;;;;;;;;;;;;;;;;5135281;27;19923;-63
2023/05/20 10:10:47;;;;;;;;;;;;;;;;;;5135378;27;19923;-63
2023/05/20 10:13:13;;;;;;;;;;;;;;;;;;5169070;27;19968;-64
2023/05/20 10:15:39;;;;;;;;;;;;;;;;;;5134920;27;19923;-63
2023/05/20 10:18:05;;;;;;;;;;;;;;;;;;5135177;27;20341;-63
2023/05/20 10:20:31;;;;;;;;;;;;;;;;;;5168618;27;20029;-63
2023/05/20 10:22:57;;;;;;;;;;;;;;;;;;5134276;27;20372;-63
2023/05/20 10:25:25;;;;;;;;;;;;;;;;;;5134054;27;19931;-63
2023/05/20 10:27:51;;;;;;;;;;;;;;;;;;5168579;27;19992;-63
2023/05/20 10:30:17;;;;;;;;;;;;;;;;;;5134611;27;19974;-63
2023/05/20 10:32:43;;;;;;;;;;;;;;;;;;5132832;27;19923;-63
2023/05/20 10:35:09;;;;;;;;;;;;;;;;;;5133689;27;20052;-62
2023/05/20 10:37:44;;;;;;;;;;;23.40;85.00;;;;;;5134344;27;19927;-61
2023/05/20 10:40:11;;;;;;;;;;;21.90;90.70;;;;;;5133820;27;19923;-61
2023/05/20 10:42:37;;;;;;;;;;;21.60;91.10;;;;;;5134347;27;20022;-62
2023/05/20 10:45:03;;;;;;;;;;;21.50;91.00;;;;;;5134440;27;20442;-62
2023/05/20 10:47:29;;;;;;;;;;;21.50;91.50;;;;;;5133152;27;19969;-63
2023/05/20 10:49:55;;;;;;;;;;;21.80;91.20;;;;;;5134561;27;20269;-63
2023/05/20 10:52:21;;;;;;;;;;;22.00;90.90;;;;;;5132781;27;20014;-65
2023/05/20 10:54:54;;;;;;;;;;;21.90;91.00;;;;;;5134387;27;19974;-62
2023/05/20 10:57:20;;;;;;;;;;;21.80;91.30;;;;;;5134311;27;19999;-64
2023/05/20 10:59:46;;;;;;;;;;;21.60;91.80;;;;;;5133961;27;19924;-62
2023/05/20 11:02:13;;;;;;;;;;;21.60;92.20;;;;;;5134341;27;20034;-62
2023/05/20 11:04:41;;;;;;;;;;;21.40;92.00;;;;;;5133932;27;19930;-63
2023/05/20 11:07:07;;;;;;;;;;;21.30;92.70;;;;;;5133716;27;19967;-63
2023/05/20 11:09:33;;;;;;;;;;;21.40;92.90;;;;;;5133821;27;20021;-62
2023/05/20 11:11:59;;;;;;;;;;;21.40;92.60;;;;;;5133932;27;20449;-62
2023/05/20 11:14:27;;;;;;;;;;;21.40;92.80;;;;;;5132758;27;20010;-64
2023/05/20 11:16:55;;;;;;;;;;;21.40;92.80;;;;;;5133993;27;19976;-62
2023/05/20 11:19:21;;;;;;;;;;;21.30;92.80;;;;;;5133934;27;20287;-63
2023/05/20 11:21:47;;;;;;;;;;;21.20;92.90;;;;;;5133225;27;20395;-62
2023/05/20 11:24:13;;;;;;;;;;;21.10;92.80;;;;;;5133886;27;19930;-62
2023/05/20 11:26:39;;;;;;;;;;;20.90;93.10;;;;;;5133480;27;20002;-63
2023/05/20 11:29:05;;;;;;;;;;;21.00;94.20;;;;;;5133799;27;20026;-62
2023/05/20 11:31:31;;;;;;;;;;;21.10;94.10;;;;;;5131715;27;19929;-64
2023/05/20 11:34:03;;;;;;;;;;;21.20;93.80;;;;;;5131996;27;20013;-62
2023/05/20 11:36:29;;;;;;;;;;;21.10;94.30;;;;;;5133290;27;19923;-63
2023/05/20 11:38:58;;;;;;;;;;;21.20;94.80;;;;;;5133550;27;20010;-62
2023/05/20 11:41:24;;;;;;;;;;;21.30;94.40;;;;;;5133092;27;20364;-62
2023/05/20 11:43:57;;;;;;;;;;;21.40;94.20;;;;;;5132284;27;19931;-62
2023/05/20 11:46:23;;;;;;;;;;;21.30;94.20;;;;;;5133349;27;19923;-62
2023/05/20 11:48:55;;;;;;;;;;;21.10;93.80;;;;;;5132962;27;19945;-62
2023/05/20 11:51:25;;;;;;;;;;;21.00;93.70;;;;;;5167094;27;19931;-62
2023/05/20 11:53:51;;;;;;;;;;;20.80;94.10;;;;;;5132971;27;19923;-62
2023/05/20 11:56:17;;;;;;;;;;;20.80;94.20;;;;;;5132380;27;19971;-62
2023/05/20 11:58:42;;;;;;;;;;;20.80;94.50;;;;;;5133081;27;19923;-62
2023/05/20 12:01:08;;;;;;;;;;;20.80;94.30;;;;;;5133267;27;19968;-63
2023/05/20 12:03:35;;;;;;;;;;;20.80;94.90;;;;;;5131604;27;19927;-62
2023/05/20 12:06:02;;;;;;;;;;;21.00;94.70;;;;;;5132863;27;19973;-62
2023/05/20 12:08:27;;;;;;;;;;;21.10;94.70;;;;;;5133177;27;19924;-62
2023/05/20 12:10:53;;;;;;;;;;;21.20;94.60;;;;;;5131397;27;19924;-62
2023/05/20 12:13:18;;;;;;;;;;;21.20;94.70;;;;;;5166636;27;19923;-63
2023/05/20 12:15:44;;;;;;;;;;;21.10;94.80;;;;;;5130402;27;19980;-62
2023/05/20 12:18:10;;;;;;;;;;;21.20;95.30;;;;;;5131412;27;19924;-62
2023/05/20 12:20:36;;;;;;;;;;;21.20;94.50;;;;;;5135051;27;20281;-65
2023/05/20 12:23:01;;;;;;;;;;;21.30;94.70;;;;;;5133917;27;19949;-62
2023/05/20 12:25:27;;;;;;;;;;;21.40;94.70;;;;;;5134792;27;20359;-62
2023/05/20 12:27:53;;;;;;;;;;;21.30;94.60;;;;;;5136825;27;20000;-62
2023/05/20 12:30:19;;;;;;;;;;;21.00;95.00;;;;;;5136718;27;19930;-62
2023/05/20 12:32:45;;;;;;;;;;;20.90;94.80;;;;;;5135585;27;19934;-62
2023/05/20 12:35:11;;;;;;;;;;;20.70;95.70;;;;;;5135865;27;19981;-62
2023/05/20 12:37:37;;;;;;;;;;;20.70;95.20;;;;;;5118028;27;19978;-62
2023/05/20 12:40:07;;;;;;;;;;;20.80;95.30;;;;;;5135687;27;20003;-62
2023/05/20 12:42:36;;;;;;;;;;;20.80;94.90;;;;;;5136002;27;19924;-62
2023/05/20 12:45:02;;;;;;;;;;;20.80;95.10;;;;;;5135773;27;19930;-62
2023/05/20 12:47:28;;;;;;;;;;;20.60;95.20;;;;;;5136944;27;19927;-62
2023/05/20 12:49:53;;;;;;;;;;;20.60;95.40;;;;;;5136266;27;19934;-64
2023/05/20 12:52:19;;;;;;;;;;;20.70;95.90;;;;;;5136421;27;19923;-62
2023/05/20 12:54:45;;;;;;;;;;;20.80;95.60;;;;;;5135665;27;19923;-62
2023/05/20 12:57:10;;;;;;;;;;;20.90;95.70;;;;;;5136379;27;19934;-63
2023/05/20 12:59:36;;;;;;;;;;;21.00;95.20;;;;;;5136466;27;19931;-64
2023/05/20 13:02:02;;;;;;;;;;;21.00;95.40;;;;;;5135602;27;19927;-62
2023/05/20 13:04:27;;;;;;;;;;;21.00;95.40;;;;;;5136786;27;19992;-62
2023/05/20 13:06:53;;;;;;;;;;;;;;;;;;5135230;27;19923;-62
2023/05/20 13:09:19;;;;;;;;;;;;;;;;;;5136446;27;19924;-62
2023/05/20 13:11:45;;;;;;;;;;;;;;;;;;5136028;27;20006;-62
2023/05/20 13:14:11;;;;;;;;;;;;;;;;;;5136453;27;19977;-62
2023/05/20 13:16:37;;;;;;;;;;;;;;;;;;5135645;27;19992;-62
2023/05/20 13:19:03;;;;;;;;;;;;;;;;;;5135525;27;19923;-62
2023/05/20 13:21:30;;;;;;;;;;;;;;;;;;5135916;27;19949;-63
2023/05/20 13:23:57;;;;;;;;;;;;;;;;;;5135870;27;19923;-62
2023/05/20 13:26:23;;;;;;;;;;;;;;;;;;5135955;27;19927;-63
2023/05/20 13:28:49;;;;;;;;;;;;;;;;;;5135248;27;19975;-62
2023/05/20 13:31:15;;;;;;;;;;;;;;;;;;5135147;27;19928;-63
2023/05/20 13:33:41;;;;;;;;;;;;;;;;;;5169605;27;19994;-62
2023/05/20 13:36:07;;;;;;;;;;;;;;;;;;5135255;27;20368;-63
2023/05/20 13:38:32;;;;;;;;;;;20.80;94.90;;;;;;5135786;27;19923;-63
2023/05/20 13:40:59;;;;;;;;;;;20.30;96.50;;;;;;5134227;27;19931;-62
2023/05/20 13:43:28;;;;;;;;;;;20.10;96.40;;;;;;5135848;27;19928;-63
2023/05/20 13:45:54;;;;;;;;;;;20.10;96.40;;;;;;5135514;27;20288;-63
2023/05/20 13:48:19;;;;;;;;;;;20.20;97.10;;;;;;5135599;27;20284;-63
2023/05/20 13:50:45;;;;;;;;;;;20.40;96.60;;;;;;5135366;27;19923;-65
2023/05/20 13:53:12;;;;;;;;;;;20.60;96.20;;;;;;5134753;27;19923;-63
2023/05/20 13:55:41;;;;;;;;;;;20.50;96.50;;;;;;5135757;27;19971;-63
2023/05/20 13:58:07;;;;;;;;;;;20.50;97.10;;;;;;5135371;27;19923;-62
2023/05/20 14:00:34;;;;;;;;;;;20.30;97.40;;;;;;5135319;27;20010;-63
2023/05/20 14:03:03;;;;;;;;;;;20.30;97.50;;;;;;5135116;27;19939;-63
2023/05/20 14:05:31;;;;;;;;;;;20.40;97.20;;;;;;5134465;27;19923;-63
2023/05/20 14:07:57;;;;;;;;;;;20.40;96.50;;;;;;5135121;27;19923;-62
2023/05/20 14:10:23;;;;;;;;;;;20.50;96.50;;;;;;5135374;27;19945;-63
2023/05/20 14:12:48;;;;;;;;;;;20.60;96.40;;;;;;5134980;27;19948;-66
2023/05/20 14:15:14;;;;;;;;;;;20.50;96.00;;;;;;5135309;27;19928;-64
2023/05/20 14:17:40;;;;;;;;;;;20.40;96.30;;;;;;5134159;27;19930;-64
2023/05/20 14:20:07;;;;;;;;;;;20.30;96.60;;;;;;5116918;27;19938;-63
2023/05/20 14:22:32;;;;;;;;;;;20.30;96.90;;;;;;5168637;27;19923;-62
2023/05/20 14:24:58;;;;;;;;;;;20.30;96.60;;;;;;5133706;27;19963;-62